Portada
METAR-TAF:

METAR-TAF

Aeropuertos :

Pohnpei, Micronesia

Aeropuerto Internacional de Pohnpei

latitud: 06-59N, longitud: 158-12E, altitud: 2 m

Observación

El informe se hizo hace 13 minutos, a las 01:50 UTC
Viento 5 kt del norte
Temperatura 31°C
Humedad 71%
Presión 1006 hPa
Visibilidad: 24.1 km
Nubes dispersas a una altura de 1800 ft, Cumulus congestus.
Cielo nuboso a una altura de 13000 ft
Cielo cubierto a una altura de 30000 ft

METAR: PTPN 230150Z 35005KT 15SM SCT018TCU BKN130 OVC300 31/25 A2972 RMK TCU SE-SW

Hora: 13:03 (02:03 UTC)

Pronóstico

El informe se hizo hace 2 horas y 37 minutos, a las 23:26 UTC
Pronóstico válido del 23 a las 00 UTC al 23 a las 24 UTC
Viento 6 kt del norte-noroeste
Visibilidad: 10 km
Nubes dispersas a una altura de 1800 ft
Nubes dispersas a una altura de 4000 ft
Cielo nuboso a una altura de 15000 ft
chaparrones en las proximidades

TAF: PTPN 222326Z 2300/2324 34006KT P6SM VCSH SCT018 SCT040 BKN150

Observaciones y pronósticos meteorológicos de más de 4000 aeropuertos (mensajes METAR y TAF).

Los puntos amarillos y rojos representan las estaciones disponibles.

Ponga el ratón en el punto deseado para ver el nombre de la estación.

Haga clic para ver las observaciones y los pronósticos meteorológicos.

Para cambiar el mapa : haga clic en los botones verdes con una cruz de color negro para hacer un zoom, en el botón verde con un guión para alejar o en las flechas verdes para mapas adyacentes.


METAR-TAF: